KSTP/STP METAR and TAF weather

Enter ICAO airport designator
Station Type Date Time Source
KSTP METAR 2019/08/19 00:53 UTC NOAA

KSTP 190053Z 30008KT 10SM CLR 21/09 A2987 RMK AO2 SLP110 T02060089


Station Type Date Time Source
KSTP Decoded METAR 2019/08/19 00:53 UTC NOAA

Station name not available
Aug 18, 2019 - 08:53 PM EDT / 2019.08.19 0053 UTC
Wind: from the WNW (300 degrees) at 9 MPH (8 KT):0
Visibility: 10 mile(s):0
Sky conditions: clear
Temperature: 69.1 F (20.6 C)
Dew Point: 48.0 F (8.9 C)
Relative Humidity: 46%
Pressure (altimeter): 29.87 in. Hg (1011 hPa)
ob: KSTP 190053Z 30008KT 10SM CLR 21/09 A2987 RMK AO2 SLP110 T02060089
cycle: 1

Station Type Date Time Source
KSTP TAF 2018/02/05 20:57 UTC NOAA

TAF
AMD KSTP 051957Z 0520/0618 25007KT P6SM VCSH BKN020 OVC050
TEMPO 0520/0522 SCT020
FM052200 26006KT P6SM FEW020 BKN110
FM060100 31006KT P6SM FEW100
AMD NOT SKED

Example: see airport list